sensor_id;sensor_type;location;lat;lon;timestamp;P1;durP1;ratioP1;P2;durP2;ratioP2
20034;SDS011;10178;48.034;9.800;2024-03-23T00:54:12;5.88;;;4.50;;
20034;SDS011;10178;48.034;9.800;2024-03-23T00:56:38;3.75;;;2.90;;
20034;SDS011;10178;48.034;9.800;2024-03-23T00:59:04;7.78;;;3.75;;
20034;SDS011;10178;48.034;9.800;2024-03-23T01:01:29;6.53;;;3.63;;
20034;SDS011;10178;48.034;9.800;2024-03-23T01:03:56;4.85;;;4.05;;
20034;SDS011;10178;48.034;9.800;2024-03-23T01:06:21;5.95;;;3.72;;
20034;SDS011;10178;48.034;9.800;2024-03-23T01:08:47;5.22;;;3.25;;
20034;SDS011;10178;48.034;9.800;2024-03-23T01:11:13;5.75;;;2.75;;
20034;SDS011;10178;48.034;9.800;2024-03-23T01:13:39;3.78;;;2.85;;
20034;SDS011;10178;48.034;9.800;2024-03-23T01:16:04;3.20;;;2.75;;
20034;SDS011;10178;48.034;9.800;2024-03-23T01:18:30;3.22;;;2.58;;
20034;SDS011;10178;48.034;9.800;2024-03-23T01:20:55;3.00;;;2.55;;
20034;SDS011;10178;48.034;9.800;2024-03-23T01:23:21;5.65;;;2.72;;
20034;SDS011;10178;48.034;9.800;2024-03-23T01:25:53;2.88;;;2.50;;
20034;SDS011;10178;48.034;9.800;2024-03-23T01:28:20;3.10;;;2.80;;
20034;SDS011;10178;48.034;9.800;2024-03-23T01:30:46;3.78;;;2.67;;
20034;SDS011;10178;48.034;9.800;2024-03-23T01:33:11;2.67;;;2.40;;
20034;SDS011;10178;48.034;9.800;2024-03-23T01:35:38;3.85;;;2.65;;
20034;SDS011;10178;48.034;9.800;2024-03-23T01:38:03;2.67;;;2.47;;
20034;SDS011;10178;48.034;9.800;2024-03-23T01:40:29;5.95;;;3.03;;
20034;SDS011;10178;48.034;9.800;2024-03-23T01:42:58;3.90;;;3.13;;
20034;SDS011;10178;48.034;9.800;2024-03-23T01:45:29;2.72;;;2.20;;
20034;SDS011;10178;48.034;9.800;2024-03-23T01:47:55;4.18;;;2.60;;
20034;SDS011;10178;48.034;9.800;2024-03-23T01:50:21;2.63;;;2.22;;
20034;SDS011;10178;48.034;9.800;2024-03-23T01:52:48;3.60;;;2.50;;
20034;SDS011;10178;48.034;9.800;2024-03-23T01:55:13;4.22;;;2.40;;
20034;SDS011;10178;48.034;9.800;2024-03-23T01:57:39;3.47;;;2.63;;
20034;SDS011;10178;48.034;9.800;2024-03-23T02:00:05;3.05;;;2.40;;
20034;SDS011;10178;48.034;9.800;2024-03-23T02:02:31;3.03;;;2.38;;
20034;SDS011;10178;48.034;9.800;2024-03-23T02:04:57;3.47;;;2.13;;
20034;SDS011;10178;48.034;9.800;2024-03-23T02:07:23;2.53;;;2.10;;
20034;SDS011;10178;48.034;9.800;2024-03-23T02:09:50;2.85;;;2.45;;
20034;SDS011;10178;48.034;9.800;2024-03-23T02:12:16;2.50;;;2.20;;
20034;SDS011;10178;48.034;9.800;2024-03-23T02:14:43;4.20;;;2.25;;
20034;SDS011;10178;48.034;9.800;2024-03-23T02:17:09;2.80;;;2.17;;
20034;SDS011;10178;48.034;9.800;2024-03-23T02:19:34;2.50;;;2.20;;
20034;SDS011;10178;48.034;9.800;2024-03-23T02:22:00;3.85;;;2.33;;
20034;SDS011;10178;48.034;9.800;2024-03-23T02:24:26;3.72;;;2.20;;
20034;SDS011;10178;48.034;9.800;2024-03-23T02:26:51;5.03;;;2.33;;
20034;SDS011;10178;48.034;9.800;2024-03-23T02:29:17;4.60;;;1.88;;
20034;SDS011;10178;48.034;9.800;2024-03-23T02:31:44;2.45;;;2.25;;
20034;SDS011;10178;48.034;9.800;2024-03-23T02:34:10;2.85;;;2.40;;
20034;SDS011;10178;48.034;9.800;2024-03-23T02:36:36;6.03;;;2.80;;
20034;SDS011;10178;48.034;9.800;2024-03-23T02:39:01;3.40;;;2.30;;
20034;SDS011;10178;48.034;9.800;2024-03-23T02:41:27;2.05;;;1.90;;
20034;SDS011;10178;48.034;9.800;2024-03-23T02:43:52;3.00;;;2.08;;
20034;SDS011;10178;48.034;9.800;2024-03-23T02:46:18;2.63;;;2.28;;
20034;SDS011;10178;48.034;9.800;2024-03-23T02:48:44;3.20;;;2.42;;
20034;SDS011;10178;48.034;9.800;2024-03-23T02:51:09;3.75;;;2.35;;
20034;SDS011;10178;48.034;9.800;2024-03-23T02:53:35;2.80;;;2.10;;
20034;SDS011;10178;48.034;9.800;2024-03-23T02:56:01;3.55;;;2.35;;
20034;SDS011;10178;48.034;9.800;2024-03-23T02:58:27;2.35;;;2.15;;
20034;SDS011;10178;48.034;9.800;2024-03-23T03:00:52;2.92;;;2.20;;
20034;SDS011;10178;48.034;9.800;2024-03-23T03:03:18;3.65;;;2.30;;
20034;SDS011;10178;48.034;9.800;2024-03-23T03:05:43;3.53;;;2.53;;
20034;SDS011;10178;48.034;9.800;2024-03-23T03:08:09;3.20;;;2.10;;
20034;SDS011;10178;48.034;9.800;2024-03-23T03:10:35;2.72;;;2.20;;
20034;SDS011;10178;48.034;9.800;2024-03-23T03:15:49;3.03;;;2.40;;
20034;SDS011;10178;48.034;9.800;2024-03-23T03:18:14;3.25;;;2.38;;
20034;SDS011;10178;48.034;9.800;2024-03-23T03:20:40;3.28;;;2.05;;
20034;SDS011;10178;48.034;9.800;2024-03-23T03:23:06;2.88;;;2.20;;
20034;SDS011;10178;48.034;9.800;2024-03-23T03:25:32;2.70;;;2.00;;
20034;SDS011;10178;48.034;9.800;2024-03-23T03:27:58;5.72;;;2.45;;
20034;SDS011;10178;48.034;9.800;2024-03-23T03:30:24;5.88;;;2.40;;
20034;SDS011;10178;48.034;9.800;2024-03-23T03:32:51;2.33;;;2.05;;
20034;SDS011;10178;48.034;9.800;2024-03-23T03:35:18;4.00;;;2.40;;
20034;SDS011;10178;48.034;9.800;2024-03-23T03:37:44;3.92;;;2.20;;
20034;SDS011;10178;48.034;9.800;2024-03-23T03:40:09;3.28;;;2.35;;
20034;SDS011;10178;48.034;9.800;2024-03-23T03:42:36;3.05;;;2.30;;
20034;SDS011;10178;48.034;9.800;2024-03-23T03:45:01;2.88;;;2.28;;
20034;SDS011;10178;48.034;9.800;2024-03-23T03:47:29;2.97;;;2.30;;
20034;SDS011;10178;48.034;9.800;2024-03-23T03:49:55;3.47;;;2.35;;
20034;SDS011;10178;48.034;9.800;2024-03-23T03:52:20;4.65;;;2.10;;
20034;SDS011;10178;48.034;9.800;2024-03-23T03:54:46;4.18;;;2.60;;
20034;SDS011;10178;48.034;9.800;2024-03-23T03:57:12;2.60;;;1.98;;
20034;SDS011;10178;48.034;9.800;2024-03-23T03:59:37;2.70;;;2.30;;
20034;SDS011;10178;48.034;9.800;2024-03-23T04:02:03;2.70;;;2.10;;
20034;SDS011;10178;48.034;9.800;2024-03-23T04:04:29;2.33;;;2.13;;
20034;SDS011;10178;48.034;9.800;2024-03-23T04:06:58;2.15;;;1.95;;
20034;SDS011;10178;48.034;9.800;2024-03-23T04:09:27;4.38;;;2.08;;
20034;SDS011;10178;48.034;9.800;2024-03-23T04:11:53;2.83;;;2.10;;
20034;SDS011;10178;48.034;9.800;2024-03-23T04:14:19;2.17;;;1.98;;
20034;SDS011;10178;48.034;9.800;2024-03-23T04:16:44;2.33;;;2.05;;
20034;SDS011;10178;48.034;9.800;2024-03-23T04:19:10;4.88;;;2.22;;
20034;SDS011;10178;48.034;9.800;2024-03-23T04:21:36;4.05;;;2.20;;
20034;SDS011;10178;48.034;9.800;2024-03-23T04:24:02;3.05;;;2.25;;
20034;SDS011;10178;48.034;9.800;2024-03-23T04:26:29;2.67;;;1.90;;
20034;SDS011;10178;48.034;9.800;2024-03-23T04:28:54;2.60;;;2.40;;
20034;SDS011;10178;48.034;9.800;2024-03-23T04:31:20;2.85;;;2.00;;
20034;SDS011;10178;48.034;9.800;2024-03-23T04:33:46;3.22;;;2.13;;
20034;SDS011;10178;48.034;9.800;2024-03-23T04:36:12;2.97;;;2.00;;
20034;SDS011;10178;48.034;9.800;2024-03-23T04:38:38;3.70;;;2.65;;
20034;SDS011;10178;48.034;9.800;2024-03-23T04:41:03;3.20;;;1.98;;
20034;SDS011;10178;48.034;9.800;2024-03-23T04:43:29;3.65;;;2.53;;
20034;SDS011;10178;48.034;9.800;2024-03-23T04:45:55;2.33;;;2.05;;
20034;SDS011;10178;48.034;9.800;2024-03-23T04:48:21;4.32;;;2.20;;
20034;SDS011;10178;48.034;9.800;2024-03-23T04:50:48;4.05;;;2.22;;
20034;SDS011;10178;48.034;9.800;2024-03-23T04:53:14;2.83;;;2.15;;
20034;SDS011;10178;48.034;9.800;2024-03-23T04:55:41;2.17;;;1.88;;
20034;SDS011;10178;48.034;9.800;2024-03-23T04:58:10;3.35;;;2.20;;
20034;SDS011;10178;48.034;9.800;2024-03-23T05:00:35;3.45;;;2.25;;
20034;SDS011;10178;48.034;9.800;2024-03-23T05:03:01;2.88;;;2.17;;
20034;SDS011;10178;48.034;9.800;2024-03-23T05:05:26;3.53;;;2.35;;
20034;SDS011;10178;48.034;9.800;2024-03-23T05:07:52;4.78;;;2.53;;
20034;SDS011;10178;48.034;9.800;2024-03-23T05:10:18;2.38;;;2.05;;
20034;SDS011;10178;48.034;9.800;2024-03-23T05:12:44;3.10;;;2.25;;
20034;SDS011;10178;48.034;9.800;2024-03-23T05:15:10;5.65;;;2.30;;
20034;SDS011;10178;48.034;9.800;2024-03-23T05:17:36;3.50;;;1.98;;
20034;SDS011;10178;48.034;9.800;2024-03-23T05:20:03;3.92;;;2.28;;
20034;SDS011;10178;48.034;9.800;2024-03-23T05:22:29;2.83;;;2.25;;
20034;SDS011;10178;48.034;9.800;2024-03-23T05:24:55;7.50;;;2.50;;
20034;SDS011;10178;48.034;9.800;2024-03-23T05:27:21;4.43;;;2.50;;
20034;SDS011;10178;48.034;9.800;2024-03-23T05:29:48;4.47;;;2.50;;
20034;SDS011;10178;48.034;9.800;2024-03-23T05:32:13;3.92;;;1.98;;
20034;SDS011;10178;48.034;9.800;2024-03-23T05:34:39;3.25;;;2.15;;
20034;SDS011;10178;48.034;9.800;2024-03-23T05:37:05;3.03;;;2.05;;
20034;SDS011;10178;48.034;9.800;2024-03-23T05:39:30;2.90;;;2.30;;
20034;SDS011;10178;48.034;9.800;2024-03-23T05:41:56;2.25;;;2.05;;
20034;SDS011;10178;48.034;9.800;2024-03-23T05:44:22;3.08;;;2.35;;
20034;SDS011;10178;48.034;9.800;2024-03-23T05:46:47;3.50;;;2.17;;
20034;SDS011;10178;48.034;9.800;2024-03-23T05:49:14;5.82;;;1.98;;
20034;SDS011;10178;48.034;9.800;2024-03-23T05:51:40;2.47;;;2.28;;
20034;SDS011;10178;48.034;9.800;2024-03-23T05:54:06;2.92;;;2.10;;
20034;SDS011;10178;48.034;9.800;2024-03-23T05:56:32;2.95;;;2.03;;
20034;SDS011;10178;48.034;9.800;2024-03-23T05:58:57;6.78;;;2.28;;
20034;SDS011;10178;48.034;9.800;2024-03-23T06:01:23;5.40;;;1.98;;
20034;SDS011;10178;48.034;9.800;2024-03-23T06:03:49;4.10;;;2.35;;
20034;SDS011;10178;48.034;9.800;2024-03-23T06:06:14;3.47;;;2.10;;
20034;SDS011;10178;48.034;9.800;2024-03-23T06:08:40;3.60;;;2.22;;
20034;SDS011;10178;48.034;9.800;2024-03-23T06:11:06;4.03;;;2.30;;
20034;SDS011;10178;48.034;9.800;2024-03-23T06:13:32;5.60;;;2.75;;
20034;SDS011;10178;48.034;9.800;2024-03-23T06:15:59;3.67;;;2.67;;
20034;SDS011;10178;48.034;9.800;2024-03-23T06:18:25;5.03;;;3.03;;
20034;SDS011;10178;48.034;9.800;2024-03-23T06:20:51;2.70;;;2.47;;
20034;SDS011;10178;48.034;9.800;2024-03-23T06:23:16;3.72;;;2.53;;
20034;SDS011;10178;48.034;9.800;2024-03-23T06:25:44;2.88;;;2.60;;
20034;SDS011;10178;48.034;9.800;2024-03-23T06:28:10;3.17;;;2.47;;
20034;SDS011;10178;48.034;9.800;2024-03-23T06:30:37;4.15;;;2.55;;
20034;SDS011;10178;48.034;9.800;2024-03-23T06:33:03;2.70;;;2.13;;
20034;SDS011;10178;48.034;9.800;2024-03-23T06:35:30;3.58;;;2.53;;
20034;SDS011;10178;48.034;9.800;2024-03-23T06:37:56;2.75;;;2.38;;
20034;SDS011;10178;48.034;9.800;2024-03-23T06:40:23;3.60;;;2.30;;
20034;SDS011;10178;48.034;9.800;2024-03-23T06:42:49;3.00;;;2.47;;
20034;SDS011;10178;48.034;9.800;2024-03-23T06:45:16;3.72;;;2.45;;
20034;SDS011;10178;48.034;9.800;2024-03-23T06:48:09;3.75;;;2.40;;
20034;SDS011;10178;48.034;9.800;2024-03-23T06:50:36;5.13;;;2.50;;
20034;SDS011;10178;48.034;9.800;2024-03-23T06:53:02;3.83;;;2.35;;
20034;SDS011;10178;48.034;9.800;2024-03-23T06:55:30;2.83;;;2.30;;
20034;SDS011;10178;48.034;9.800;2024-03-23T06:57:56;4.05;;;2.50;;
20034;SDS011;10178;48.034;9.800;2024-03-23T07:00:22;3.95;;;2.13;;
20034;SDS011;10178;48.034;9.800;2024-03-23T07:02:47;2.08;;;1.90;;
20034;SDS011;10178;48.034;9.800;2024-03-23T07:05:13;3.60;;;1.95;;
20034;SDS011;10178;48.034;9.800;2024-03-23T07:07:39;2.58;;;2.10;;
20034;SDS011;10178;48.034;9.800;2024-03-23T07:10:05;2.20;;;1.80;;
20034;SDS011;10178;48.034;9.800;2024-03-23T07:12:31;2.15;;;1.95;;
20034;SDS011;10178;48.034;9.800;2024-03-23T07:14:57;4.25;;;2.17;;
20034;SDS011;10178;48.034;9.800;2024-03-23T07:17:23;2.28;;;1.95;;
20034;SDS011;10178;48.034;9.800;2024-03-23T07:19:48;3.65;;;2.10;;
20034;SDS011;10178;48.034;9.800;2024-03-23T07:22:14;2.55;;;2.30;;
20034;SDS011;10178;48.034;9.800;2024-03-23T07:24:40;4.78;;;2.10;;
20034;SDS011;10178;48.034;9.800;2024-03-23T07:27:06;2.30;;;1.95;;
20034;SDS011;10178;48.034;9.800;2024-03-23T07:29:35;3.35;;;2.08;;
20034;SDS011;10178;48.034;9.800;2024-03-23T07:32:01;2.80;;;2.08;;
20034;SDS011;10178;48.034;9.800;2024-03-23T07:34:27;2.92;;;2.13;;
20034;SDS011;10178;48.034;9.800;2024-03-23T07:36:52;1.98;;;1.88;;
20034;SDS011;10178;48.034;9.800;2024-03-23T07:39:18;2.00;;;1.80;;
20034;SDS011;10178;48.034;9.800;2024-03-23T07:41:44;4.22;;;2.30;;
20034;SDS011;10178;48.034;9.800;2024-03-23T07:44:10;2.75;;;1.98;;
20034;SDS011;10178;48.034;9.800;2024-03-23T07:46:36;3.22;;;2.10;;
20034;SDS011;10178;48.034;9.800;2024-03-23T07:49:03;3.22;;;2.10;;
20034;SDS011;10178;48.034;9.800;2024-03-23T07:51:29;2.75;;;2.03;;
20034;SDS011;10178;48.034;9.800;2024-03-23T07:53:55;2.42;;;2.22;;
20034;SDS011;10178;48.034;9.800;2024-03-23T07:56:21;3.22;;;2.42;;
20034;SDS011;10178;48.034;9.800;2024-03-23T07:58:48;3.35;;;2.38;;
20034;SDS011;10178;48.034;9.800;2024-03-23T08:01:15;7.25;;;3.38;;
20034;SDS011;10178;48.034;9.800;2024-03-23T08:03:45;3.17;;;2.03;;
20034;SDS011;10178;48.034;9.800;2024-03-23T08:08:36;4.05;;;2.85;;
20034;SDS011;10178;48.034;9.800;2024-03-23T08:11:03;4.18;;;2.97;;
20034;SDS011;10178;48.034;9.800;2024-03-23T08:13:29;4.93;;;3.22;;
20034;SDS011;10178;48.034;9.800;2024-03-23T08:15:59;4.30;;;3.70;;
20034;SDS011;10178;48.034;9.800;2024-03-23T08:18:25;4.60;;;2.92;;
20034;SDS011;10178;48.034;9.800;2024-03-23T08:23:24;5.45;;;3.42;;
20034;SDS011;10178;48.034;9.800;2024-03-23T08:25:50;5.43;;;3.55;;
20034;SDS011;10178;48.034;9.800;2024-03-23T08:31:20;5.35;;;3.13;;
20034;SDS011;10178;48.034;9.800;2024-03-23T08:33:46;4.55;;;3.25;;
20034;SDS011;10178;48.034;9.800;2024-03-23T08:36:12;3.47;;;2.88;;
20034;SDS011;10178;48.034;9.800;2024-03-23T08:38:39;3.33;;;2.75;;
20034;SDS011;10178;48.034;9.800;2024-03-23T08:41:05;3.00;;;2.60;;
20034;SDS011;10178;48.034;9.800;2024-03-23T08:43:33;3.00;;;2.28;;
20034;SDS011;10178;48.034;9.800;2024-03-23T08:46:09;2.30;;;2.10;;
20034;SDS011;10178;48.034;9.800;2024-03-23T08:48:43;3.33;;;1.58;;
20034;SDS011;10178;48.034;9.800;2024-03-23T08:51:14;3.80;;;1.75;;
20034;SDS011;10178;48.034;9.800;2024-03-23T08:53:42;1.73;;;1.52;;
20034;SDS011;10178;48.034;9.800;2024-03-23T08:56:09;1.25;;;1.15;;
20034;SDS011;10178;48.034;9.800;2024-03-23T08:58:35;1.25;;;1.15;;
20034;SDS011;10178;48.034;9.800;2024-03-23T09:01:09;1.08;;;1.00;;
20034;SDS011;10178;48.034;9.800;2024-03-23T09:03:36;0.93;;;0.73;;
20034;SDS011;10178;48.034;9.800;2024-03-23T09:06:02;0.93;;;0.93;;
20034;SDS011;10178;48.034;9.800;2024-03-23T09:08:36;1.15;;;0.70;;
20034;SDS011;10178;48.034;9.800;2024-03-23T09:11:05;0.77;;;0.77;;
20034;SDS011;10178;48.034;9.800;2024-03-23T09:13:35;0.73;;;0.68;;
20034;SDS011;10178;48.034;9.800;2024-03-23T09:16:02;0.52;;;0.45;;
20034;SDS011;10178;48.034;9.800;2024-03-23T09:18:30;0.50;;;0.50;;
20034;SDS011;10178;48.034;9.800;2024-03-23T09:20:57;1.10;;;0.40;;
20034;SDS011;10178;48.034;9.800;2024-03-23T09:23:23;0.55;;;0.55;;
20034;SDS011;10178;48.034;9.800;2024-03-23T09:25:48;0.40;;;0.40;;
20034;SDS011;10178;48.034;9.800;2024-03-23T09:28:14;0.90;;;0.50;;
20034;SDS011;10178;48.034;9.800;2024-03-23T09:30:39;0.50;;;0.50;;
20034;SDS011;10178;48.034;9.800;2024-03-23T09:33:11;0.73;;;0.30;;
20034;SDS011;10178;48.034;9.800;2024-03-23T09:35:42;0.63;;;0.63;;
20034;SDS011;10178;48.034;9.800;2024-03-23T09:38:09;1.98;;;0.57;;
20034;SDS011;10178;48.034;9.800;2024-03-23T09:40:40;0.60;;;0.60;;
20034;SDS011;10178;48.034;9.800;2024-03-23T09:43:07;1.45;;;0.70;;
20034;SDS011;10178;48.034;9.800;2024-03-23T09:45:35;1.42;;;0.80;;
20034;SDS011;10178;48.034;9.800;2024-03-23T09:48:08;2.88;;;0.70;;
20034;SDS011;10178;48.034;9.800;2024-03-23T09:50:40;2.53;;;0.60;;
20034;SDS011;10178;48.034;9.800;2024-03-23T09:53:07;1.05;;;0.68;;
20034;SDS011;10178;48.034;9.800;2024-03-23T09:55:34;1.10;;;0.75;;
20034;SDS011;10178;48.034;9.800;2024-03-23T09:58:00;2.38;;;0.60;;
20034;SDS011;10178;48.034;9.800;2024-03-23T10:00:27;1.10;;;0.75;;
20034;SDS011;10178;48.034;9.800;2024-03-23T10:02:55;0.50;;;0.50;;
20034;SDS011;10178;48.034;9.800;2024-03-23T10:05:23;0.63;;;0.63;;
20034;SDS011;10178;48.034;9.800;2024-03-23T10:07:52;0.50;;;0.50;;
20034;SDS011;10178;48.034;9.800;2024-03-23T10:10:17;1.23;;;0.70;;
20034;SDS011;10178;48.034;9.800;2024-03-23T10:12:44;1.02;;;0.70;;
20034;SDS011;10178;48.034;9.800;2024-03-23T10:15:19;1.48;;;0.57;;
20034;SDS011;10178;48.034;9.800;2024-03-23T10:17:46;2.45;;;0.70;;
20034;SDS011;10178;48.034;9.800;2024-03-23T10:20:13;0.95;;;0.65;;
20034;SDS011;10178;48.034;9.800;2024-03-23T10:22:44;1.30;;;0.80;;
20034;SDS011;10178;48.034;9.800;2024-03-23T10:25:10;2.00;;;0.90;;
20034;SDS011;10178;48.034;9.800;2024-03-23T10:27:37;3.95;;;1.05;;
20034;SDS011;10178;48.034;9.800;2024-03-23T10:30:12;2.30;;;1.00;;
20034;SDS011;10178;48.034;9.800;2024-03-23T10:32:42;2.05;;;0.70;;
20034;SDS011;10178;48.034;9.800;2024-03-23T10:35:17;1.20;;;0.88;;
20034;SDS011;10178;48.034;9.800;2024-03-23T10:37:45;1.02;;;0.88;;
20034;SDS011;10178;48.034;9.800;2024-03-23T10:40:17;1.08;;;0.90;;
20034;SDS011;10178;48.034;9.800;2024-03-23T10:42:43;2.78;;;1.17;;
20034;SDS011;10178;48.034;9.800;2024-03-23T10:45:09;1.42;;;0.90;;
20034;SDS011;10178;48.034;9.800;2024-03-23T10:47:36;3.25;;;1.00;;
20034;SDS011;10178;48.034;9.800;2024-03-23T10:50:05;3.42;;;1.40;;
20034;SDS011;10178;48.034;9.800;2024-03-23T10:52:34;2.85;;;1.25;;
20034;SDS011;10178;48.034;9.800;2024-03-23T10:55:01;2.67;;;1.42;;
20034;SDS011;10178;48.034;9.800;2024-03-23T10:57:40;1.73;;;1.30;;
20034;SDS011;10178;48.034;9.800;2024-03-23T11:00:10;4.05;;;1.50;;
20034;SDS011;10178;48.034;9.800;2024-03-23T11:02:37;2.35;;;1.40;;
20034;SDS011;10178;48.034;9.800;2024-03-23T11:05:27;2.60;;;1.10;;
20034;SDS011;10178;48.034;9.800;2024-03-23T11:07:52;5.25;;;1.45;;
20034;SDS011;10178;48.034;9.800;2024-03-23T11:12:51;3.33;;;1.15;;
20034;SDS011;10178;48.034;9.800;2024-03-23T11:15:18;2.60;;;1.25;;
20034;SDS011;10178;48.034;9.800;2024-03-23T11:18:01;5.45;;;1.50;;
20034;SDS011;10178;48.034;9.800;2024-03-23T11:20:33;3.10;;;1.55;;
20034;SDS011;10178;48.034;9.800;2024-03-23T11:23:00;5.50;;;1.83;;
20034;SDS011;10178;48.034;9.800;2024-03-23T11:25:26;6.35;;;1.40;;
20034;SDS011;10178;48.034;9.800;2024-03-23T11:27:53;4.25;;;1.45;;
20034;SDS011;10178;48.034;9.800;2024-03-23T11:32:56;3.72;;;1.90;;
20034;SDS011;10178;48.034;9.800;2024-03-23T11:35:29;5.18;;;2.13;;
20034;SDS011;10178;48.034;9.800;2024-03-23T11:38:10;5.22;;;2.08;;
20034;SDS011;10178;48.034;9.800;2024-03-23T11:40:37;3.38;;;1.95;;
20034;SDS011;10178;48.034;9.800;2024-03-23T11:43:11;3.60;;;1.88;;
20034;SDS011;10178;48.034;9.800;2024-03-23T11:45:42;6.20;;;2.40;;
20034;SDS011;10178;48.034;9.800;2024-03-23T11:48:20;3.55;;;2.10;;
20034;SDS011;10178;48.034;9.800;2024-03-23T11:50:47;8.20;;;2.40;;
20034;SDS011;10178;48.034;9.800;2024-03-23T11:53:15;3.40;;;1.75;;
20034;SDS011;10178;48.034;9.800;2024-03-23T11:56:03;5.50;;;1.90;;
20034;SDS011;10178;48.034;9.800;2024-03-23T11:58:29;7.13;;;2.30;;
20034;SDS011;10178;48.034;9.800;2024-03-23T12:00:56;7.50;;;2.20;;
20034;SDS011;10178;48.034;9.800;2024-03-23T12:03:27;4.88;;;1.70;;
20034;SDS011;10178;48.034;9.800;2024-03-23T12:05:58;4.93;;;2.00;;
20034;SDS011;10178;48.034;9.800;2024-03-23T12:11:04;4.03;;;1.58;;
20034;SDS011;10178;48.034;9.800;2024-03-23T12:13:31;6.20;;;2.35;;
20034;SDS011;10178;48.034;9.800;2024-03-23T12:18:35;4.25;;;1.95;;
20034;SDS011;10178;48.034;9.800;2024-03-23T12:21:01;4.68;;;1.58;;
20034;SDS011;10178;48.034;9.800;2024-03-23T12:23:26;4.57;;;1.30;;
20034;SDS011;10178;48.034;9.800;2024-03-23T12:25:52;3.88;;;1.27;;
20034;SDS011;10178;48.034;9.800;2024-03-23T12:28:17;6.78;;;1.17;;
20034;SDS011;10178;48.034;9.800;2024-03-23T12:30:43;4.60;;;1.48;;
20034;SDS011;10178;48.034;9.800;2024-03-23T12:33:09;6.65;;;1.88;;
20034;SDS011;10178;48.034;9.800;2024-03-23T12:35:34;6.10;;;1.63;;
20034;SDS011;10178;48.034;9.800;2024-03-23T12:38:03;5.72;;;1.40;;
20034;SDS011;10178;48.034;9.800;2024-03-23T12:40:32;5.10;;;1.58;;
20034;SDS011;10178;48.034;9.800;2024-03-23T12:42:57;4.43;;;1.40;;
20034;SDS011;10178;48.034;9.800;2024-03-23T12:45:23;4.57;;;1.80;;
20034;SDS011;10178;48.034;9.800;2024-03-23T12:47:49;4.85;;;1.42;;
20034;SDS011;10178;48.034;9.800;2024-03-23T12:50:17;3.88;;;1.25;;
20034;SDS011;10178;48.034;9.800;2024-03-23T12:52:43;7.57;;;1.50;;
20034;SDS011;10178;48.034;9.800;2024-03-23T12:55:08;6.70;;;1.48;;
20034;SDS011;10178;48.034;9.800;2024-03-23T12:57:34;3.25;;;1.40;;
20034;SDS011;10178;48.034;9.800;2024-03-23T13:00:00;8.52;;;1.50;;
20034;SDS011;10178;48.034;9.800;2024-03-23T13:02:25;3.92;;;1.50;;
20034;SDS011;10178;48.034;9.800;2024-03-23T13:04:55;2.45;;;1.10;;
20034;SDS011;10178;48.034;9.800;2024-03-23T13:07:21;3.85;;;1.50;;
20034;SDS011;10178;48.034;9.800;2024-03-23T13:09:51;2.25;;;1.23;;
20034;SDS011;10178;48.034;9.800;2024-03-23T13:12:18;3.28;;;0.93;;
20034;SDS011;10178;48.034;9.800;2024-03-23T13:14:46;2.65;;;1.20;;
20034;SDS011;10178;48.034;9.800;2024-03-23T13:17:12;2.80;;;1.27;;
20034;SDS011;10178;48.034;9.800;2024-03-23T13:19:38;1.23;;;1.13;;
20034;SDS011;10178;48.034;9.800;2024-03-23T13:22:04;4.15;;;1.10;;
20034;SDS011;10178;48.034;9.800;2024-03-23T13:24:30;1.50;;;0.88;;
20034;SDS011;10178;48.034;9.800;2024-03-23T13:26:56;3.05;;;1.08;;
20034;SDS011;10178;48.034;9.800;2024-03-23T13:29:22;3.25;;;0.75;;
20034;SDS011;10178;48.034;9.800;2024-03-23T13:31:49;2.97;;;1.02;;
20034;SDS011;10178;48.034;9.800;2024-03-23T13:34:16;3.63;;;1.08;;
20034;SDS011;10178;48.034;9.800;2024-03-23T13:36:42;3.47;;;1.10;;
20034;SDS011;10178;48.034;9.800;2024-03-23T13:39:09;5.63;;;1.08;;
20034;SDS011;10178;48.034;9.800;2024-03-23T13:41:42;4.18;;;1.33;;
20034;SDS011;10178;48.034;9.800;2024-03-23T13:44:12;3.30;;;1.30;;
20034;SDS011;10178;48.034;9.800;2024-03-23T13:46:39;2.90;;;1.48;;
20034;SDS011;10178;48.034;9.800;2024-03-23T13:49:06;5.63;;;1.50;;
20034;SDS011;10178;48.034;9.800;2024-03-23T13:51:32;3.28;;;1.30;;
20034;SDS011;10178;48.034;9.800;2024-03-23T13:53:58;5.85;;;1.42;;
20034;SDS011;10178;48.034;9.800;2024-03-23T13:56:27;4.43;;;1.42;;
20034;SDS011;10178;48.034;9.800;2024-03-23T13:58:54;4.22;;;1.40;;
20034;SDS011;10178;48.034;9.800;2024-03-23T14:01:20;4.93;;;1.45;;
20034;SDS011;10178;48.034;9.800;2024-03-23T14:03:46;3.45;;;1.20;;
20034;SDS011;10178;48.034;9.800;2024-03-23T14:06:11;2.70;;;1.23;;
20034;SDS011;10178;48.034;9.800;2024-03-23T14:08:37;4.38;;;0.82;;
20034;SDS011;10178;48.034;9.800;2024-03-23T14:11:08;4.55;;;1.23;;
20034;SDS011;10178;48.034;9.800;2024-03-23T14:13:34;6.30;;;1.40;;
20034;SDS011;10178;48.034;9.800;2024-03-23T14:16:00;2.92;;;1.10;;
20034;SDS011;10178;48.034;9.800;2024-03-23T14:18:26;3.33;;;1.30;;
20034;SDS011;10178;48.034;9.800;2024-03-23T14:20:52;1.90;;;0.93;;
20034;SDS011;10178;48.034;9.800;2024-03-23T14:23:23;3.75;;;1.20;;
20034;SDS011;10178;48.034;9.800;2024-03-23T14:25:50;4.05;;;0.90;;
20034;SDS011;10178;48.034;9.800;2024-03-23T14:28:18;4.28;;;1.15;;
20034;SDS011;10178;48.034;9.800;2024-03-23T14:30:43;3.30;;;0.98;;
20034;SDS011;10178;48.034;9.800;2024-03-23T14:33:09;3.65;;;1.30;;
20034;SDS011;10178;48.034;9.800;2024-03-23T14:35:35;2.33;;;0.95;;
20034;SDS011;10178;48.034;9.800;2024-03-23T14:38:01;4.78;;;1.10;;
20034;SDS011;10178;48.034;9.800;2024-03-23T14:40:27;3.97;;;1.10;;
20034;SDS011;10178;48.034;9.800;2024-03-23T14:42:54;3.20;;;0.98;;
20034;SDS011;10178;48.034;9.800;2024-03-23T14:45:20;5.07;;;1.25;;
20034;SDS011;10178;48.034;9.800;2024-03-23T14:47:46;4.35;;;1.77;;
20034;SDS011;10178;48.034;9.800;2024-03-23T14:50:12;3.20;;;1.05;;
20034;SDS011;10178;48.034;9.800;2024-03-23T14:52:41;2.40;;;1.00;;
20034;SDS011;10178;48.034;9.800;2024-03-23T14:55:10;2.72;;;0.98;;
20034;SDS011;10178;48.034;9.800;2024-03-23T14:57:39;1.73;;;0.70;;
20034;SDS011;10178;48.034;9.800;2024-03-23T15:00:08;7.03;;;1.08;;
20034;SDS011;10178;48.034;9.800;2024-03-23T15:02:37;4.82;;;1.10;;
20034;SDS011;10178;48.034;9.800;2024-03-23T15:05:03;3.33;;;1.08;;
20034;SDS011;10178;48.034;9.800;2024-03-23T15:07:33;3.33;;;0.88;;
20034;SDS011;10178;48.034;9.800;2024-03-23T15:09:58;4.05;;;0.98;;
20034;SDS011;10178;48.034;9.800;2024-03-23T15:12:24;2.70;;;0.73;;
20034;SDS011;10178;48.034;9.800;2024-03-23T15:14:50;3.13;;;0.98;;
20034;SDS011;10178;48.034;9.800;2024-03-23T15:17:15;3.65;;;0.77;;
20034;SDS011;10178;48.034;9.800;2024-03-23T15:19:41;4.55;;;0.88;;
20034;SDS011;10178;48.034;9.800;2024-03-23T15:22:07;4.47;;;0.70;;
20034;SDS011;10178;48.034;9.800;2024-03-23T15:24:34;3.70;;;0.80;;
20034;SDS011;10178;48.034;9.800;2024-03-23T15:27:01;3.05;;;0.80;;
20034;SDS011;10178;48.034;9.800;2024-03-23T15:29:34;1.80;;;0.88;;
20034;SDS011;10178;48.034;9.800;2024-03-23T15:32:02;2.22;;;0.95;;
20034;SDS011;10178;48.034;9.800;2024-03-23T15:34:32;4.57;;;0.90;;
20034;SDS011;10178;48.034;9.800;2024-03-23T15:36:58;2.33;;;0.60;;
20034;SDS011;10178;48.034;9.800;2024-03-23T15:39:24;3.92;;;0.93;;
20034;SDS011;10178;48.034;9.800;2024-03-23T15:41:49;2.30;;;0.80;;
20034;SDS011;10178;48.034;9.800;2024-03-23T15:44:15;2.75;;;0.77;;
20034;SDS011;10178;48.034;9.800;2024-03-23T15:46:40;3.65;;;0.93;;
20034;SDS011;10178;48.034;9.800;2024-03-23T15:49:06;2.97;;;0.82;;
20034;SDS011;10178;48.034;9.800;2024-03-23T15:51:32;2.15;;;0.85;;
20034;SDS011;10178;48.034;9.800;2024-03-23T15:53:59;2.85;;;0.77;;
20034;SDS011;10178;48.034;9.800;2024-03-23T15:56:25;3.75;;;0.90;;
20034;SDS011;10178;48.034;9.800;2024-03-23T15:58:51;1.00;;;0.50;;
20034;SDS011;10178;48.034;9.800;2024-03-23T16:01:17;3.83;;;0.50;;